Currently 64°F in Beaumont, California, USA
64°F
64°F / 58°F
1 mph NW
0.00"
Wednesday, June 20, 2018 4:12 AM PDT

Beaumont, California Weather Summary
Last 36 Hours

Temperature Winds Hourly Humidity Dewpoint
Time Report Norm Report Norm Max Gusts Precip. Rpt. Norm Rpt. Norm Pressure
1,2Wed 04:12 AM  64.4°F  64°F  1 mph NW  2 mph  3 mph  0.00"  43%  52%  41°F  45°F  29.80"
Wed 04:00 AM  63.9°F  64°F  1 mph NW  2 mph  3 mph  0.00"  44%  53%  41°F  46°F  29.80"
Wed 03:00 AM  61.7°F  64°F  1 mph NW  2 mph  3 mph  0.00"  62%  53%  48°F  46°F  29.79"
Wed 02:00 AM  58.8°F  65°F  calm  1 mph  none  0.00"  73%  54%  50°F  47°F  29.82"
Wed 01:00 AM  60.1°F  65°F  calm  1 mph  2 mph  0.00"  75%  55%  52°F  48°F  29.83"
3Wed 12:00 AM  58.3°F  66°F  calm  1 mph  3 mph  0.00"  77%  53%  51°F  48°F  29.84"
Tue 11:00 PM  59.7°F  67°F  calm  1 mph  7 mph  0.00"  74%  53%  51°F  48°F  29.85"
Tue 10:00 PM  62.8°F  69°F  3 mph W  2 mph  8 mph  0.00"  69%  51%  52°F  49°F  29.85"
Tue 09:00 PM  68.0°F  71°F  calm  3 mph  10 mph  0.00"  56%  47%  51°F  50°F  29.83"
Tue 08:00 PM  71.8°F  75°F  2 mph W  3 mph  12 mph  0.00"  50%  43%  51°F  50°F  29.83"
Tue 07:00 PM  75.7°F  79°F  2 mph SE  3 mph  15 mph  0.00"  42%  37%  50°F  49°F  29.82"
Tue 06:00 PM  79.0°F  83°F  4 mph SW  4 mph  12 mph  0.00"  37%  31%  50°F  48°F  29.81"
Tue 05:00 PM  80.4°F  85°F  4 mph W  4 mph  12 mph  0.00"  34%  29%  49°F  48°F  29.82"
Tue 04:00 PM  80.2°F  86°F  4 mph N  4 mph  12 mph  0.00"  33%  27%  48°F  47°F  29.84"
Tue 03:00 PM  79.9°F  86°F  1 mph W  5 mph  13 mph  0.00"  35%  26%  49°F  46°F  29.85"
Tue 02:00 PM  79.5°F  85°F  3 mph W  5 mph  14 mph  0.00"  33%  26%  47°F  45°F  29.86"
Tue 01:00 PM  79.5°F  84°F  5 mph SW  4 mph  12 mph  0.00"  35%  28%  49°F  46°F  29.87"
Tue 12:00 PM  77.5°F  82°F  3 mph SW  5 mph  12 mph  0.00"  32%  29%  44°F  46°F  29.88"
Tue 11:00 AM  75.4°F  80°F  5 mph W  4 mph  12 mph  0.00"  36%  32%  46°F  46°F  29.88"
Tue 10:00 AM  72.0°F  77°F  3 mph SW  4 mph  9 mph  0.00"  48%  35%  51°F  47°F  29.87"
Tue 09:00 AM  64.6°F  74°F  3 mph S  3 mph  10 mph  0.00"  60%  39%  50°F  47°F  29.88"
Tue 08:00 AM  61.5°F  71°F  2 mph S  2 mph  5 mph  0.00"  65%  45%  49°F  48°F  29.88"
Tue 07:00 AM  57.0°F  68°F  calm  1 mph  2 mph  0.00"  73%  47%  48°F  46°F  29.88"
Tue 06:00 AM  51.6°F  64°F  1 mph W  2 mph  none  0.00"  82%  50%  46°F  44°F  29.88"
Tue 05:00 AM  51.4°F  64°F  calm  2 mph  none  0.00"  83%  51%  46°F  45°F  29.88"
Tue 04:00 AM  52.3°F  64°F  calm  2 mph  3 mph  0.00"  82%  52%  47°F  45°F  29.87"
Tue 03:00 AM  50.7°F  64°F  1 mph W  2 mph  3 mph  0.00"  85%  53%  46°F  46°F  29.87"
Tue 02:00 AM  50.2°F  64°F  calm  1 mph  8 mph  0.00"  86%  54%  46°F  47°F  29.88"
Tue 01:00 AM  51.6°F  65°F  1 mph W  1 mph  3 mph  0.00"  84%  55%  47°F  47°F  29.89"
Tue 12:00 AM  52.9°F  66°F  calm  1 mph  7 mph  0.00"  80%  53%  47°F  47°F  29.90"
Mon 11:00 PM  55.0°F  67°F  3 mph W  1 mph  10 mph  0.00"  78%  52%  48°F  48°F  29.91"
Mon 10:01 PM  56.8°F  69°F  calm  2 mph  7 mph  0.00"  73%  50%  48°F  49°F  29.92"
Mon 09:00 PM  59.2°F  71°F  1 mph SW  3 mph  16 mph  0.00"  68%  47%  48°F  49°F  29.91"
Mon 08:00 PM  61.2°F  75°F  4 mph NW  3 mph  13 mph  0.00"  64%  42%  48°F  49°F  29.89"
Mon 07:00 PM  64.6°F  78°F  1 mph W  3 mph  12 mph  0.00"  57%  37%  48°F  49°F  29.89"
Mon 06:00 PM  69.6°F  83°F  3 mph S  4 mph  12 mph  0.00"  44%  31%  46°F  48°F  29.88"
Mon 05:00 PM  72.0°F  85°F  5 mph SW  4 mph  12 mph  0.00"  40%  29%  45°F  47°F  29.89"

  1. Current weather data. No green row appears if the current weather data is also the high or low for the current day.
  2. High temperature for the current day.
  3. Low temperature for the current day.

The Beaumont, California weather pages are a service of WeatherCurrents. Cherry Valley is located in northern Riverside County, California, a community of the northern part of Beaumont, along the Interstate 10 highway, in the San Gorgonio pass area, between the communities of Calimesa, Banning.
Copyright ©Wed Jun 20 04:18:53 PDT 2018  WeatherCurrents. All rights reserved. - Submit questions and comments - Privacy Policy

This page automatically refreshes every 10 minutes.